Portada
METAR-TAF:

METAR-TAF

Aeroports :

Lampang, Tailàndia

latitud: 18-17N, longitud: 099-31E, altitud: 241 m

Observació

L'informe es va fer fa 27 minuts, a les 08:00 UTC
Vent 2 kt amb direcció variable
Temperatura 36°C
Humitat 53%
Pressió 1007 hPa
Visibilitat 10 km o més
Escasses núvols a una alçada de 4000 ft

METAR: VTCL 230800Z VRB02KT 9999 FEW040 36/25 Q1007 NOSIG

Hora: 15:27 (08:27 UTC)

Pronòstic

L'informe es va fer fa 3 hores i 27 minuts, a les 05:00 UTC
Pronòstic vàlid del 23 a les 06 UTC al 24 a les 06 UTC
Vent 5 kt del Sud-Est
Visibilitat 10 km o més
Escasses núvols a una alçada de 3500 ft
Evolucionant progressivament
l' 23 a les 21 UTC al 23 a les 23 UTC
Visibilitat: 4000 m
boirina
Evolucionant progressivament
l' 24 a les 01 UTC al 24 a les 03 UTC
Visibilitat 10 km o més

TAF: VTCL 230500Z 2306/2406 14005KT 9999 FEW035 BECMG 2321/2323 4000 BR BECMG 2401/2403 9999 NSW

Observacions i pronòstics meteorològics de més de 4000 aeroports (METAR i TAF).

Les estacions disponibles són els punts grocs i vermells al mapa.

Posi el ratolí al punt desitjat per veure el nom de l'estació.

Feu clic per veure les observacions i els pronòstics meteorològics.

Per canviar el mapa: feu clic els botons verds amb una creu de color negre per apropar; al botó verd amb un guió per allunyar la imatge; o en les fletxes verdes per a mapes adjacents.


METAR-TAF: